Time;durP1;ratioP1;P1;durP2;ratioP2;P2;SDS_P1;SDS_P2;PMS_P1;PMS_P2;Temp;Humidity;BMP_temperature;BMP_pressure;BME280_temperature;BME280_humidity;BME280_pressure;Samples;Min_cycle;Max_cycle;Signal;HPM_P1;HPM_P2
2021/09/06 00:02:14;;;;;;;14.13;9.38;;;;;;;;;;4995598;28;20134;-86
2021/09/06 00:04:41;;;;;;;13.43;9.20;;;;;;;;;;4995212;28;20490;-86
2021/09/06 00:07:09;;;;;;;12.00;8.95;;;;;;;;;;4995857;28;20053;-86
2021/09/06 00:09:36;;;;;;;12.38;8.95;;;;;;;;;;4994860;28;20042;-86
2021/09/06 00:12:04;;;;;;;12.77;9.63;;;;;;;;;;4995377;28;20046;-86
2021/09/06 00:14:31;;;;;;;11.35;8.93;;;;;;;;;;5001769;28;20057;-86
2021/09/06 00:16:59;;;;;;;12.13;9.25;;;;;;;;;;5013895;28;20046;-86
2021/09/06 00:19:26;;;;;;;14.25;10.45;;;;;;;;;;4996718;28;20141;-87
2021/09/06 00:21:54;;;;;;;12.30;9.70;;;;;;;;;;4995006;28;20557;-86
2021/09/06 00:24:22;;;;;;;12.73;9.18;;;;;;;;;;4994014;28;20054;-84
2021/09/06 00:26:49;;;;;;;12.40;9.45;;;;;;;;;;4994869;28;20066;-84
2021/09/06 00:29:16;;;;;;;13.40;9.25;;;;;;;;;;5002999;28;20430;-86
2021/09/06 00:31:43;;;;;;;12.98;9.52;;;;;;;;;;5004408;28;20046;-84
2021/09/06 00:34:10;;;;;;;12.52;10.02;;;;;;;;;;5006472;28;20054;-85
2021/09/06 00:36:37;;;;;;;12.52;9.70;;;;;;;;;;5006065;28;20046;-84
2021/09/06 00:39:04;;;;;;;11.48;10.00;;;;;;;;;;4996654;28;20062;-84
2021/09/06 00:41:32;;;;;;;13.02;10.25;;;;;;;;;;4996046;28;20515;-84
2021/09/06 00:43:59;;;;;;;12.68;9.68;;;;;;;;;;4998025;28;20057;-84
2021/09/06 00:46:26;;;;;;;12.65;9.40;;;;;;;;;;4996043;28;20638;-84
2021/09/06 00:48:53;;;;;;;13.02;9.55;;;;;;;;;;5000599;28;20046;-84
2021/09/06 00:51:22;;;;;;;12.45;9.40;;;;;;;;;;5003541;28;20062;-84
2021/09/06 00:53:49;;;;;;;14.30;9.98;;;;;;;;;;5002451;28;20070;-84
2021/09/06 00:56:16;;;;;;;12.18;9.63;;;;;;;;;;5005232;28;20056;-84
2021/09/06 00:58:45;;;;;;;11.77;9.48;;;;;;;;;;5000117;28;20070;-84
2021/09/06 01:01:12;;;;;;;13.20;10.07;;;;;;;;;;5001933;28;20491;-84
2021/09/06 01:03:38;;;;;;;12.95;10.27;;;;;;;;;;4988123;28;20417;-84
2021/09/06 01:06:05;;;;;;;12.77;9.55;;;;;;;;;;5001725;28;20050;-84
2021/09/06 01:08:32;;;;;;;13.27;10.13;;;;;;;;;;4999942;28;20050;-83
2021/09/06 01:10:59;;;;;;;12.32;10.00;;;;;;;;;;4997744;28;20563;-84
2021/09/06 01:13:25;;;;;;;14.07;10.75;;;;;;;;;;5000835;28;20050;-86
2021/09/06 01:15:53;;;;;;;13.40;10.48;;;;;;;;;;4998094;28;20471;-84
2021/09/06 01:18:20;;;;;;;12.35;9.73;;;;;;;;;;4997543;28;20054;-86
2021/09/06 01:20:47;;;;;;;13.38;10.70;;;;;;;;;;4998199;28;20046;-86
2021/09/06 01:23:14;;;;;;;14.60;10.48;;;;;;;;;;4997670;28;20097;-87
2021/09/06 01:25:41;;;;;;;12.70;9.75;;;;;;;;;;4997656;28;20105;-85
2021/09/06 01:28:09;;;;;;;14.07;10.88;;;;;;;;;;4997905;28;20078;-85
2021/09/06 01:30:37;;;;;;;13.90;10.70;;;;;;;;;;4998064;28;20050;-85
2021/09/06 01:33:04;;;;;;;14.27;10.82;;;;;;;;;;4997662;28;20062;-85
2021/09/06 01:35:31;;;;;;;16.75;11.18;;;;;;;;;;4998694;28;20050;-84
2021/09/06 01:37:58;;;;;;;14.25;10.77;;;;;;;;;;5001247;28;20049;-85
2021/09/06 01:40:25;;;;;;;13.35;10.48;;;;;;;;;;5016803;28;20058;-84
2021/09/06 01:42:52;;;;;;;12.68;10.85;;;;;;;;;;5018224;28;20034;-85
2021/09/06 01:45:21;;;;;;;13.55;10.50;;;;;;;;;;5017689;28;20061;-84
2021/09/06 01:47:48;;;;;;;14.43;11.15;;;;;;;;;;5014441;28;20053;-84
2021/09/06 01:50:15;;;;;;;13.68;9.68;;;;;;;;;;5009584;28;20046;-85
2021/09/06 01:52:41;;;;;;;14.27;11.00;;;;;;;;;;5025410;23;20069;-82
2021/09/06 01:55:09;;;;;;;12.75;10.10;;;;;;;;;;5029050;28;20049;-80
2021/09/06 01:57:36;;;;;;;13.18;10.10;;;;;;;;;;5029720;28;20050;-82
2021/09/06 02:00:03;;;;;;;12.30;10.20;;;;;;;;;;5027742;28;20054;-82
2021/09/06 02:02:32;;;;;;;15.60;11.43;;;;;;;;;;5021488;28;20046;-80
2021/09/06 02:04:58;;;;;;;15.40;11.07;;;;;;;;;;5008999;28;20057;-80
2021/09/06 02:07:25;;;;;;;13.43;10.32;;;;;;;;;;5009968;28;20053;-81
2021/09/06 02:09:52;;;;;;;12.70;10.50;;;;;;;;;;5009278;28;20082;-83
2021/09/06 02:12:18;;;;;;;12.93;9.93;;;;;;;;;;5008291;28;20402;-82
2021/09/06 02:14:45;;;;;;;12.70;9.65;;;;;;;;;;5008124;28;20057;-81
2021/09/06 02:17:12;;;;;;;11.40;9.80;;;;;;;;;;5009082;28;20053;-81
2021/09/06 02:19:40;;;;;;;13.20;9.75;;;;;;;;;;5008849;28;20080;-81
2021/09/06 02:22:07;;;;;;;14.20;10.75;;;;;;;;;;5008975;28;20053;-81
2021/09/06 02:24:33;;;;;;;13.82;10.27;;;;;;;;;;5009616;28;20046;-81
2021/09/06 02:27:00;;;;;;;12.40;9.98;;;;;;;;;;5009203;28;20062;-81
2021/09/06 02:29:27;;;;;;;12.85;10.55;;;;;;;;;;5009802;28;20070;-81
2021/09/06 02:31:53;;;;;;;12.88;10.35;;;;;;;;;;5008273;28;20510;-81
2021/09/06 02:34:20;;;;;;;12.75;10.07;;;;;;;;;;5009256;28;20331;-81
2021/09/06 02:36:48;;;;;;;14.23;9.93;;;;;;;;;;5009621;28;20496;-81
2021/09/06 02:39:15;;;;;;;13.32;10.18;;;;;;;;;;5009595;28;20065;-81
2021/09/06 02:41:41;;;;;;;13.85;10.50;;;;;;;;;;5008550;28;20399;-81
2021/09/06 02:44:08;;;;;;;13.10;10.38;;;;;;;;;;5009157;28;20042;-80
2021/09/06 02:46:35;;;;;;;13.93;9.90;;;;;;;;;;5009947;28;20069;-82
2021/09/06 02:49:01;;;;;;;13.05;10.15;;;;;;;;;;5010105;28;20488;-81
2021/09/06 02:51:28;;;;;;;13.48;9.48;;;;;;;;;;5009232;28;20464;-82
2021/09/06 02:53:56;;;;;;;13.05;9.90;;;;;;;;;;5009493;28;20114;-81
2021/09/06 02:56:23;;;;;;;11.52;9.25;;;;;;;;;;5009395;28;20666;-81
2021/09/06 02:58:50;;;;;;;12.98;9.95;;;;;;;;;;5015565;28;20034;-81
2021/09/06 03:01:16;;;;;;;13.00;9.75;;;;;;;;;;5014829;28;20034;-82
2021/09/06 03:03:43;;;;;;;11.82;9.45;;;;;;;;;;5011331;28;20050;-82
2021/09/06 03:06:10;;;;;;;12.23;9.50;;;;;;;;;;5009385;28;20078;-81
2021/09/06 03:08:36;;;;;;;12.73;9.55;;;;;;;;;;5009388;28;20043;-82
2021/09/06 03:11:04;;;;;;;13.23;9.43;;;;;;;;;;5008779;28;20054;-82
2021/09/06 03:13:31;;;;;;;12.25;9.38;;;;;;;;;;5009198;28;20046;-81
2021/09/06 03:15:58;;;;;;;12.98;9.82;;;;;;;;;;5006821;28;20046;-81
2021/09/06 03:18:24;;;;;;;13.50;9.48;;;;;;;;;;5010408;28;20046;-81
2021/09/06 03:20:51;;;;;;;12.98;9.55;;;;;;;;;;5008466;28;20050;-82
2021/09/06 03:23:18;;;;;;;13.15;8.93;;;;;;;;;;5009411;28;20050;-81
2021/09/06 03:25:45;;;;;;;13.85;9.45;;;;;;;;;;5008083;28;20419;-81
2021/09/06 03:28:13;;;;;;;12.60;8.80;;;;;;;;;;5009726;28;20046;-81
2021/09/06 03:30:40;;;;;;;13.95;9.82;;;;;;;;;;5007074;28;20433;-81
2021/09/06 03:33:08;;;;;;;12.75;9.73;;;;;;;;;;5000844;28;20108;-81
2021/09/06 03:35:34;;;;;;;11.77;9.15;;;;;;;;;;5000775;28;20053;-82
2021/09/06 03:38:01;;;;;;;11.40;8.77;;;;;;;;;;5000777;28;20050;-81
2021/09/06 03:40:28;;;;;;;15.82;10.82;;;;;;;;;;5000313;28;20065;-82
2021/09/06 03:42:54;;;;;;;14.68;10.93;;;;;;;;;;5000156;28;20089;-81
2021/09/06 03:45:22;;;;;;;13.80;10.07;;;;;;;;;;5002794;28;20050;-82
2021/09/06 03:47:49;;;;;;;12.43;10.00;;;;;;;;;;5000193;28;20133;-82
2021/09/06 03:50:16;;;;;;;14.95;10.32;;;;;;;;;;4998896;28;20048;-82
2021/09/06 03:52:43;;;;;;;12.98;8.95;;;;;;;;;;5000203;28;20074;-82
2021/09/06 03:55:10;;;;;;;15.85;10.52;;;;;;;;;;5006980;28;20057;-81
2021/09/06 03:57:37;;;;;;;13.95;10.57;;;;;;;;;;5005258;28;20047;-82
2021/09/06 04:00:05;;;;;;;17.27;11.90;;;;;;;;;;4998270;28;20086;-82
2021/09/06 04:02:33;;;;;;;18.63;12.23;;;;;;;;;;4999190;28;20086;-82
2021/09/06 04:05:00;;;;;;;15.20;11.88;;;;;;;;;;5003408;28;20046;-80
2021/09/06 04:07:27;;;;;;;13.88;11.10;;;;;;;;;;5003359;28;20077;-80
2021/09/06 04:09:54;;;;;;;15.80;10.43;;;;;;;;;;5004478;28;20081;-81
2021/09/06 04:12:21;;;;;;;14.27;10.63;;;;;;;;;;5004827;28;20058;-81
2021/09/06 04:14:48;;;;;;;15.23;11.00;;;;;;;;;;5001272;28;20112;-81
2021/09/06 04:17:15;;;;;;;14.10;10.15;;;;;;;;;;4999415;28;20053;-81
2021/09/06 04:19:43;;;;;;;16.38;11.02;;;;;;;;;;4998829;28;20050;-83
2021/09/06 04:22:10;;;;;;;14.05;11.10;;;;;;;;;;4999036;28;20081;-83
2021/09/06 04:24:36;;;;;;;16.08;11.95;;;;;;;;;;4999417;28;20050;-81
2021/09/06 04:27:04;;;;;;;14.10;10.68;;;;;;;;;;4999464;28;20054;-79
2021/09/06 04:29:31;;;;;;;15.13;11.52;;;;;;;;;;5000097;28;20078;-81
2021/09/06 04:31:57;;;;;;;16.10;11.38;;;;;;;;;;4999558;28;20138;-82
2021/09/06 04:34:24;;;;;;;15.85;11.55;;;;;;;;;;4999834;28;20081;-80
2021/09/06 04:36:52;;;;;;;17.23;11.20;;;;;;;;;;4999979;28;20050;-80
2021/09/06 04:39:22;;;;;;;13.98;10.63;;;;;;;;;;5000294;28;20046;-81
2021/09/06 04:41:48;;;;;;;14.35;10.68;;;;;;;;;;4999428;28;20093;-80
2021/09/06 04:44:17;;;;;;;16.30;11.23;;;;;;;;;;5000068;28;20050;-81
2021/09/06 04:46:43;;;;;;;16.02;11.20;;;;;;;;;;5001133;28;20082;-80
2021/09/06 04:49:10;;;;;;;16.77;10.45;;;;;;;;;;5001418;28;20058;-82
2021/09/06 04:51:37;;;;;;;13.45;10.02;;;;;;;;;;5001481;28;20086;-82
2021/09/06 04:54:05;;;;;;;16.10;10.32;;;;;;;;;;5001960;28;20081;-82
2021/09/06 04:56:31;;;;;;;14.93;10.75;;;;;;;;;;5002974;28;20086;-82
2021/09/06 04:58:58;;;;;;;14.88;11.93;;;;;;;;;;5002172;28;20101;-82
2021/09/06 05:01:25;;;;;;;14.95;10.40;;;;;;;;;;5001581;28;20088;-82
2021/09/06 05:03:51;;;;;;;14.88;10.63;;;;;;;;;;5002161;28;20050;-82
2021/09/06 05:06:18;;;;;;;16.10;12.32;;;;;;;;;;5004034;28;20050;-80
2021/09/06 05:08:45;;;;;;;18.35;11.80;;;;;;;;;;5002846;28;20046;-81
2021/09/06 05:11:13;;;;;;;17.77;10.88;;;;;;;;;;5002094;28;20110;-80
2021/09/06 05:13:40;;;;;;;14.27;10.45;;;;;;;;;;5001699;28;20043;-81
2021/09/06 05:16:06;;;;;;;15.05;12.18;;;;;;;;;;5001136;28;20476;-82
2021/09/06 05:18:33;;;;;;;15.95;11.20;;;;;;;;;;5002565;28;20077;-82
2021/09/06 05:21:01;;;;;;;17.88;11.50;;;;;;;;;;5001565;28;20085;-81
2021/09/06 05:23:27;;;;;;;19.25;12.23;;;;;;;;;;5002242;28;20054;-82
2021/09/06 05:25:54;;;;;;;18.52;11.40;;;;;;;;;;5002642;28;20113;-82
2021/09/06 05:28:22;;;;;;;20.70;12.00;;;;;;;;;;5002746;28;20057;-81
2021/09/06 05:30:49;;;;;;;16.75;11.18;;;;;;;;;;5002561;28;20050;-80
2021/09/06 05:33:15;;;;;;;17.05;11.90;;;;;;;;;;5007590;28;20050;-80
2021/09/06 05:35:42;;;;;;;19.55;12.50;;;;;;;;;;5003990;28;20457;-83
2021/09/06 05:38:09;;;;;;;16.58;11.73;;;;;;;;;;4999542;28;20051;-82
2021/09/06 05:40:36;;;;;;;23.23;14.90;;;;;;;;;;4998760;28;20051;-82
2021/09/06 05:43:03;;;;;;;24.98;14.20;;;;;;;;;;5000316;28;20049;-82
2021/09/06 05:45:31;;;;;;;26.77;14.55;;;;;;;;;;5000138;28;20042;-82
2021/09/06 05:47:58;;;;;;;17.83;12.65;;;;;;;;;;5000846;28;20054;-80
2021/09/06 05:50:25;;;;;;;19.92;13.30;;;;;;;;;;5004755;28;20086;-82
2021/09/06 05:52:52;;;;;;;18.85;12.30;;;;;;;;;;5005035;28;20066;-82
2021/09/06 05:55:19;;;;;;;21.13;12.73;;;;;;;;;;5006695;28;20047;-80
2021/09/06 05:57:46;;;;;;;17.63;12.60;;;;;;;;;;5008440;28;20051;-81
2021/09/06 06:00:13;;;;;;;18.25;12.60;;;;;;;;;;5008063;28;20561;-81
2021/09/06 06:02:41;;;;;;;15.32;12.25;;;;;;;;;;5008566;28;20050;-81
2021/09/06 06:05:09;;;;;;;18.73;13.20;;;;;;;;;;5008903;28;20368;-82
2021/09/06 06:07:36;;;;;;;18.58;12.63;;;;;;;;;;5008147;28;20060;-81
2021/09/06 06:10:03;;;;;;;18.15;14.02;;;;;;;;;;5007956;28;20054;-81
2021/09/06 06:12:30;;;;;;;20.58;14.15;;;;;;;;;;5008829;28;20042;-81
2021/09/06 06:14:58;;;;;;;21.52;14.80;;;;;;;;;;5002824;28;20050;-80
2021/09/06 06:17:25;;;;;;;20.98;14.50;;;;;;;;;;5002275;28;20106;-80
2021/09/06 06:19:53;;;;;;;20.58;14.65;;;;;;;;;;5005887;28;20061;-80
2021/09/06 06:22:20;;;;;;;21.05;14.15;;;;;;;;;;5004014;28;20076;-80
2021/09/06 06:24:47;;;;;;;21.08;14.23;;;;;;;;;;5009759;28;20050;-80
2021/09/06 06:27:14;;;;;;;18.65;12.55;;;;;;;;;;5005029;28;20042;-81
2021/09/06 06:29:40;;;;;;;20.65;13.85;;;;;;;;;;5003569;28;20065;-81
2021/09/06 06:32:08;;;;;;;20.80;14.20;;;;;;;;;;5003189;28;20069;-79
2021/09/06 06:34:35;;;;;;;22.38;14.43;;;;;;;;;;5010132;28;20058;-79
2021/09/06 06:37:03;;;;;;;21.55;14.60;;;;;;;;;;5005421;28;20435;-80
2021/09/06 06:39:30;;;;;;;25.52;16.77;;;;;;;;;;5003490;28;20047;-80
2021/09/06 06:41:57;;;;;;;29.60;15.88;;;;;;;;;;5000868;28;20451;-79
2021/09/06 06:44:23;;;;;;;27.60;17.50;;;;;;;;;;5000150;28;20050;-82
2021/09/06 06:46:50;;;;;;;27.48;18.75;;;;;;;;;;5001343;28;20069;-80
2021/09/06 06:49:17;;;;;;;22.85;15.90;;;;;;;;;;5000896;28;20085;-81
2021/09/06 06:51:44;;;;;;;25.30;17.30;;;;;;;;;;4999579;28;20092;-80
2021/09/06 06:54:12;;;;;;;23.27;15.32;;;;;;;;;;5000734;28;20089;-80
2021/09/06 06:56:39;;;;;;;28.63;16.35;;;;;;;;;;5001313;28;20115;-80
2021/09/06 06:59:05;;;;;;;24.63;16.13;;;;;;;;;;5001189;28;20050;-80
2021/09/06 07:01:32;;;;;;;20.38;13.43;;;;;;;;;;5000191;28;20081;-81
2021/09/06 07:03:59;;;;;;;23.38;15.60;;;;;;;;;;5001288;28;20085;-81
2021/09/06 07:06:26;;;;;;;22.38;15.70;;;;;;;;;;5001406;28;20046;-81
2021/09/06 07:08:52;;;;;;;25.35;15.75;;;;;;;;;;5001072;28;20054;-81
2021/09/06 07:11:21;;;;;;;21.42;15.88;;;;;;;;;;5000754;28;20420;-80
2021/09/06 07:13:48;;;;;;;23.10;16.00;;;;;;;;;;5002119;28;20047;-82
2021/09/06 07:16:14;;;;;;;22.30;15.93;;;;;;;;;;5002844;28;20077;-82
2021/09/06 07:18:41;;;;;;;21.23;14.73;;;;;;;;;;5004053;28;20120;-82
2021/09/06 07:21:08;;;;;;;19.42;14.02;;;;;;;;;;5017056;28;20046;-82
2021/09/06 07:23:34;;;;;;;26.33;15.35;;;;;;;;;;5021778;28;20506;-82
2021/09/06 07:26:01;;;;;;;21.15;14.02;;;;;;;;;;5020571;28;20058;-81
2021/09/06 07:28:29;;;;;;;17.90;13.07;;;;;;;;;;5017893;28;20065;-82
2021/09/06 07:30:57;;;;;;;19.63;14.35;;;;;;;;;;5018248;28;20096;-81
2021/09/06 07:33:24;;;;;;;18.92;13.82;;;;;;;;;;5018404;28;20053;-81
2021/09/06 07:35:51;;;;;;;18.42;11.80;;;;;;;;;;5020472;28;20069;-81
2021/09/06 07:38:17;;;;;;;18.92;14.18;;;;;;;;;;5023216;28;20050;-80
2021/09/06 07:40:44;;;;;;;19.48;13.95;;;;;;;;;;5026811;28;20050;-80
2021/09/06 07:43:11;;;;;;;20.50;15.45;;;;;;;;;;5024331;28;20081;-81
2021/09/06 07:45:41;;;;;;;15.98;12.68;;;;;;;;;;5025028;28;20061;-81
2021/09/06 07:48:08;;;;;;;20.33;14.70;;;;;;;;;;5024048;28;20049;-82
2021/09/06 07:50:35;;;;;;;19.65;14.32;;;;;;;;;;5019638;28;20085;-82
2021/09/06 07:53:02;;;;;;;19.27;14.95;;;;;;;;;;5019995;28;20080;-81
2021/09/06 07:55:28;;;;;;;25.85;18.92;;;;;;;;;;5021618;28;20057;-82
2021/09/06 07:57:55;;;;;;;21.35;16.75;;;;;;;;;;5021208;28;20073;-80
2021/09/06 08:00:22;;;;;;;21.95;17.15;;;;;;;;;;5033032;23;20094;-81
2021/09/06 08:02:50;;;;;;;22.08;17.85;;;;;;;;;;5017891;28;20053;-81
2021/09/06 08:05:20;;;;;;;21.00;16.77;;;;;;;;;;5017120;28;20073;-80
2021/09/06 08:07:47;;;;;;;21.65;16.77;;;;;;;;;;5018411;28;20070;-81
2021/09/06 08:10:14;;;;;;;22.52;15.93;;;;;;;;;;5018017;28;20630;-81
2021/09/06 08:12:41;;;;;;;17.63;13.10;;;;;;;;;;5016844;28;20085;-81
2021/09/06 08:15:10;;;;;;;22.85;14.80;;;;;;;;;;5017728;28;20082;-81
2021/09/06 08:17:37;;;;;;;20.83;15.55;;;;;;;;;;5018000;28;20057;-81
2021/09/06 08:20:08;;;;;;;20.17;15.85;;;;;;;;;;5016909;28;20069;-81
2021/09/06 08:22:35;;;;;;;21.15;14.80;;;;;;;;;;5017530;28;20052;-81
2021/09/06 08:25:02;;;;;;;18.33;14.30;;;;;;;;;;5017202;28;20057;-82
2021/09/06 08:27:28;;;;;;;20.58;16.63;;;;;;;;;;5017184;28;20097;-81
2021/09/06 08:29:55;;;;;;;19.85;14.23;;;;;;;;;;5015757;28;20046;-80
2021/09/06 08:32:22;;;;;;;18.92;14.45;;;;;;;;;;5016119;28;20054;-81
2021/09/06 08:34:49;;;;;;;19.88;14.38;;;;;;;;;;5016529;28;20535;-81
2021/09/06 08:37:17;;;;;;;19.70;14.35;;;;;;;;;;5016711;28;20042;-81
2021/09/06 08:39:44;;;;;;;19.67;13.73;;;;;;;;;;5016712;28;20104;-81
2021/09/06 08:42:11;;;;;;;16.27;12.95;;;;;;;;;;5016232;28;20050;-81
2021/09/06 08:44:38;;;;;;;17.85;13.07;;;;;;;;;;5016394;28;20076;-81
2021/09/06 08:47:05;;;;;;;16.92;12.02;;;;;;;;;;5016245;28;20129;-81
2021/09/06 08:49:31;;;;;;;19.38;13.05;;;;;;;;;;5017501;28;20132;-80
2021/09/06 08:51:59;;;;;;;18.02;11.88;;;;;;;;;;5017134;28;20468;-81
2021/09/06 08:54:27;;;;;;;19.17;12.82;;;;;;;;;;5017943;28;20129;-81
2021/09/06 08:56:54;;;;;;;15.98;11.73;;;;;;;;;;5018025;28;20073;-80
2021/09/06 08:59:21;;;;;;;15.80;12.25;;;;;;;;;;5017467;28;20082;-82
2021/09/06 09:01:51;;;;;;;18.75;11.57;;;;;;;;;;5015708;28;20081;-82
2021/09/06 09:04:19;;;;;;;17.08;11.65;;;;;;;;;;5020215;28;20057;-82
2021/09/06 09:06:48;;;;;;;15.77;12.13;;;;;;;;;;5020420;28;20085;-82
2021/09/06 09:09:23;;;;;;;15.20;11.60;;;;;;;;;;5018859;28;20042;-82
2021/09/06 09:12:13;;;;;;;18.02;11.60;;;;;;;;;;5025674;28;20058;-81
2021/09/06 09:14:43;;;;;;;17.00;11.63;;;;;;;;;;5001653;28;20050;-82
2021/09/06 09:17:12;;;;;;;19.40;13.35;;;;;;;;;;5003001;28;20319;-81
2021/09/06 09:19:39;;;;;;;17.67;12.10;;;;;;;;;;5000017;28;20092;-81
2021/09/06 09:22:07;;;;;;;21.48;15.48;;;;;;;;;;4999304;28;20074;-81
2021/09/06 09:24:37;;;;;;;17.02;12.57;;;;;;;;;;5002239;28;20050;-81
2021/09/06 09:27:06;;;;;;;16.08;11.90;;;;;;;;;;5003422;28;20234;-81
2021/09/06 09:29:35;;;;;;;19.38;12.48;;;;;;;;;;5011514;28;20097;-80
2021/09/06 09:32:06;;;;;;;17.25;13.02;;;;;;;;;;5021245;28;20041;-80
2021/09/06 09:34:37;;;;;;;18.00;12.63;;;;;;;;;;5021490;28;20049;-79
2021/09/06 09:37:04;;;;;;;18.48;11.88;;;;;;;;;;5021208;28;20058;-81
2021/09/06 09:39:33;;;;;;;18.63;10.73;;;;;;;;;;5020142;28;20082;-79
2021/09/06 09:42:05;;;;;;;14.18;10.77;;;;;;;;;;5002978;28;20134;-80
2021/09/06 09:44:31;;;;;;;13.48;9.85;;;;;;;;;;5005997;28;20046;-79
2021/09/06 09:47:02;;;;;;;15.57;11.98;;;;;;;;;;5004133;28;20542;-81
2021/09/06 09:49:31;;;;;;;14.32;11.07;;;;;;;;;;5002409;28;20042;-83
2021/09/06 09:51:58;;;;;;;17.80;12.32;;;;;;;;;;5000223;28;20141;-85
2021/09/06 09:54:25;;;;;;;15.50;11.00;;;;;;;;;;5000189;28;20138;-84
2021/09/06 09:56:52;;;;;;;16.05;10.77;;;;;;;;;;5002452;28;20558;-83
2021/09/06 09:59:19;;;;;;;16.25;11.15;;;;;;;;;;5007626;28;20046;-83
2021/09/06 10:01:51;;;;;;;15.23;10.57;;;;;;;;;;5020433;28;20042;-83
2021/09/06 10:04:22;;;;;;;12.50;10.60;;;;;;;;;;4982176;28;20105;-83
2021/09/06 10:06:49;;;;;;;14.35;10.13;;;;;;;;;;4980374;28;20078;-83
2021/09/06 10:09:16;;;;;;;12.93;10.32;;;;;;;;;;4980111;28;20054;-83
2021/09/06 10:15:06;;;;;;;14.23;11.00;;;;;;;;;;5016185;28;20057;-83
2021/09/06 10:17:35;;;;;;;14.13;11.43;;;;;;;;;;5004483;28;20099;-83
2021/09/06 10:20:17;;;;;;;14.02;11.30;;;;;;;;;;5001268;28;20089;-83
2021/09/06 10:22:45;;;;;;;14.27;10.90;;;;;;;;;;5002699;28;20050;-84
2021/09/06 10:25:20;;;;;;;16.33;12.82;;;;;;;;;;5000023;28;20082;-84
2021/09/06 10:27:54;;;;;;;15.32;12.60;;;;;;;;;;5005170;28;20062;-80
2021/09/06 10:30:20;;;;;;;15.02;11.52;;;;;;;;;;5005070;28;20046;-84
2021/09/06 10:32:49;;;;;;;16.50;12.57;;;;;;;;;;4998318;28;20082;-82
2021/09/06 10:35:22;;;;;;;14.80;11.88;;;;;;;;;;4997521;28;20516;-81
2021/09/06 10:38:01;;;;;;;15.93;12.70;;;;;;;;;;4997688;28;20050;-82
2021/09/06 10:40:30;;;;;;;16.33;13.50;;;;;;;;;;4998223;28;20507;-83
2021/09/06 10:42:57;;;;;;;19.98;15.18;;;;;;;;;;4999512;28;20054;-83
2021/09/06 10:45:33;;;;;;;31.15;17.40;;;;;;;;;;4999590;28;20086;-85
2021/09/06 10:48:04;;;;;;;21.67;14.75;;;;;;;;;;5000825;28;20065;-82
2021/09/06 10:50:36;;;;;;;19.77;13.95;;;;;;;;;;5006300;28;20038;-84
2021/09/06 10:53:03;;;;;;;71.05;55.13;;;;;;;;;;5008897;28;20058;-82
2021/09/06 10:55:30;;;;;;;24.73;18.27;;;;;;;;;;4997694;28;20108;-81
2021/09/06 10:57:59;;;;;;;16.33;13.02;;;;;;;;;;5000512;28;20055;-82
2021/09/06 11:00:26;;;;;;;21.42;14.90;;;;;;;;;;5008409;28;20064;-82
2021/09/06 11:02:53;;;;;;;18.67;14.52;;;;;;;;;;4991143;28;20500;-82
2021/09/06 11:05:20;;;;;;;20.98;15.00;;;;;;;;;;4977425;28;20043;-80
2021/09/06 11:07:48;;;;;;;16.77;13.10;;;;;;;;;;4977671;28;20046;-80
2021/09/06 11:10:19;;;;;;;14.30;11.77;;;;;;;;;;4978750;28;20477;-81
2021/09/06 11:12:54;;;;;;;18.65;14.20;;;;;;;;;;4979295;28;20050;-82
2021/09/06 11:15:25;;;;;;;17.23;12.88;;;;;;;;;;4978570;28;20055;-81
2021/09/06 11:17:59;;;;;;;15.13;11.65;;;;;;;;;;4978743;28;20046;-84
2021/09/06 11:20:27;;;;;;;13.70;11.15;;;;;;;;;;4978072;28;20082;-84
2021/09/06 11:22:59;;;;;;;15.57;10.80;;;;;;;;;;4981520;28;20043;-84
2021/09/06 11:25:28;;;;;;;13.35;11.00;;;;;;;;;;4979545;28;20057;-83
2021/09/06 11:28:05;;;;;;;14.50;11.73;;;;;;;;;;4984389;28;20047;-82
2021/09/06 11:30:33;;;;;;;13.82;11.07;;;;;;;;;;4984020;28;20051;-79
2021/09/06 11:33:02;;;;;;;12.25;9.68;;;;;;;;;;4983336;28;20102;-82
2021/09/06 11:35:29;;;;;;;14.25;11.05;;;;;;;;;;4986580;28;20061;-81
2021/09/06 11:37:57;;;;;;;14.32;11.35;;;;;;;;;;4986469;28;20058;-82
2021/09/06 11:40:25;;;;;;;15.50;10.70;;;;;;;;;;4983815;28;20054;-83
2021/09/06 11:42:54;;;;;;;15.88;11.57;;;;;;;;;;4982767;28;20082;-81
2021/09/06 11:45:22;;;;;;;16.25;11.45;;;;;;;;;;4979072;28;20189;-83
2021/09/06 11:47:49;;;;;;;16.38;11.50;;;;;;;;;;4977399;28;20496;-84
2021/09/06 11:50:19;;;;;;;20.27;12.45;;;;;;;;;;4975411;28;20053;-85
2021/09/06 11:52:46;;;;;;;13.18;10.13;;;;;;;;;;4980436;28;20050;-82
2021/09/06 11:55:16;;;;;;;11.32;8.88;;;;;;;;;;4978607;28;20074;-81
2021/09/06 11:57:43;;;;;;;12.02;9.57;;;;;;;;;;4983093;28;20047;-83
2021/09/06 12:00:12;;;;;;;12.27;9.73;;;;;;;;;;5008049;28;20070;-83
2021/09/06 12:02:48;;;;;;;16.83;10.10;;;;;;;;;;5004104;28;20069;-84
2021/09/06 12:05:16;;;;;;;12.80;9.55;;;;;;;;;;5004835;28;20046;-82
2021/09/06 12:07:47;;;;;;;13.57;9.93;;;;;;;;;;5008496;28;20046;-82
2021/09/06 12:10:26;;;;;;;13.52;8.98;;;;;;;;;;5003353;28;20480;-83
2021/09/06 12:13:00;;;;;;;11.57;8.98;;;;;;;;;;5003279;28;20046;-82
2021/09/06 12:15:27;;;;;;;15.60;10.95;;;;;;;;;;5005669;28;20038;-82
2021/09/06 12:18:06;;;;;;;13.40;8.80;;;;;;;;;;5006121;28;20055;-83
2021/09/06 12:20:34;;;;;;;21.13;10.98;;;;;;;;;;5001865;28;20046;-81
2021/09/06 12:23:01;;;;;;;18.95;9.48;;;;;;;;;;4998267;28;20056;-83
2021/09/06 12:25:29;;;;;;;12.38;9.05;;;;;;;;;;4998093;28;20138;-84
2021/09/06 12:28:06;;;;;;;14.98;9.45;;;;;;;;;;5000673;28;20522;-83
2021/09/06 12:30:33;;;;;;;10.95;8.60;;;;;;;;;;5000722;28;20046;-82
2021/09/06 12:32:59;;;;;;;11.80;8.60;;;;;;;;;;4997372;28;20068;-82
2021/09/06 12:35:26;;;;;;;13.13;8.23;;;;;;;;;;4998126;28;20082;-82
2021/09/06 12:37:53;;;;;;;9.30;8.18;;;;;;;;;;4998953;28;20042;-82
2021/09/06 12:40:19;;;;;;;14.63;8.30;;;;;;;;;;4997443;28;20077;-82
2021/09/06 12:42:50;;;;;;;9.77;7.60;;;;;;;;;;4997742;28;20109;-82
2021/09/06 12:45:17;;;;;;;12.75;8.63;;;;;;;;;;4998184;28;20085;-82
2021/09/06 12:47:44;;;;;;;10.02;7.43;;;;;;;;;;4998697;28;20070;-82
2021/09/06 12:50:11;;;;;;;11.20;7.70;;;;;;;;;;4998043;28;20046;-81
2021/09/06 12:52:38;;;;;;;11.30;7.85;;;;;;;;;;4998572;28;20495;-81
2021/09/06 12:55:06;;;;;;;10.52;8.13;;;;;;;;;;4998410;28;20070;-82
2021/09/06 12:57:36;;;;;;;11.13;7.45;;;;;;;;;;5000067;28;20085;-82
2021/09/06 13:00:06;;;;;;;9.15;7.07;;;;;;;;;;5002216;28;20113;-82
2021/09/06 13:02:35;;;;;;;8.90;7.30;;;;;;;;;;5002181;28;20077;-82
2021/09/06 13:05:04;;;;;;;9.10;6.72;;;;;;;;;;5003798;28;20078;-82
2021/09/06 13:07:34;;;;;;;9.85;6.78;;;;;;;;;;5009333;28;20484;-84
2021/09/06 13:10:03;;;;;;;8.98;7.30;;;;;;;;;;5006512;28;20057;-83
2021/09/06 13:12:30;;;;;;;10.43;6.95;;;;;;;;;;5005845;28;20524;-84
2021/09/06 13:14:58;;;;;;;8.82;6.82;;;;;;;;;;5006093;28;20520;-83
2021/09/06 13:17:26;;;;;;;10.30;7.60;;;;;;;;;;5005440;28;20186;-83
2021/09/06 13:19:53;;;;;;;8.52;6.55;;;;;;;;;;4999515;28;20054;-83
2021/09/06 13:22:22;;;;;;;8.23;6.60;;;;;;;;;;4997246;28;20078;-84
2021/09/06 13:24:49;;;;;;;8.20;6.68;;;;;;;;;;4997573;28;20056;-82
2021/09/06 13:27:15;;;;;;;9.88;6.97;;;;;;;;;;4998202;28;20065;-83
2021/09/06 13:29:42;;;;;;;10.00;7.18;;;;;;;;;;4997423;28;20518;-84
2021/09/06 13:32:09;;;;;;;10.43;7.38;;;;;;;;;;4996947;28;20511;-83
2021/09/06 13:34:38;;;;;;;8.75;6.93;;;;;;;;;;4997834;28;20507;-83
2021/09/06 13:37:08;;;;;;;9.45;7.25;;;;;;;;;;4997154;28;20082;-83
2021/09/06 13:39:34;;;;;;;;;;;;;;;;;;4998067;28;20129;-83
2021/09/06 13:42:09;;;;;;;9.82;6.97;;;;;;;;;;4997547;28;19972;-83
2021/09/06 13:44:38;;;;;;;8.88;6.88;;;;;;;;;;5001020;28;20050;-82
2021/09/06 13:47:08;;;;;;;8.23;6.43;;;;;;;;;;5003748;28;20050;-83
2021/09/06 13:49:36;;;;;;;10.52;6.70;;;;;;;;;;5000523;28;20074;-82
2021/09/06 13:52:05;;;;;;;8.63;6.45;;;;;;;;;;5000514;28;20073;-82
2021/09/06 13:54:31;;;;;;;8.90;7.15;;;;;;;;;;5000705;28;20046;-82
2021/09/06 13:56:58;;;;;;;8.40;6.90;;;;;;;;;;4996830;28;20558;-82
2021/09/06 13:59:25;;;;;;;8.73;7.32;;;;;;;;;;4996653;28;20070;-82
2021/09/06 14:02:10;;;;;;;8.32;7.28;;;;;;;;;;4998142;28;20514;-86
2021/09/06 14:04:40;;;;;;;10.55;7.47;;;;;;;;;;4996536;28;20058;-84
2021/09/06 14:07:21;;;;;;;;;;;;;;;;;;4997202;28;20116;-84
2021/09/06 14:09:48;;;;;;;9.52;7.03;;;;;;;;;;4997430;28;20271;-83
2021/09/06 14:12:14;;;;;;;11.73;8.07;;;;;;;;;;4997377;28;20627;-83
2021/09/06 14:14:44;;;;;;;9.93;7.35;;;;;;;;;;4997018;28;20133;-81
2021/09/06 14:17:13;;;;;;;8.55;7.55;;;;;;;;;;4998037;28;20050;-83
2021/09/06 14:19:39;;;;;;;9.32;7.13;;;;;;;;;;4998376;28;20074;-83
2021/09/06 14:22:08;;;;;;;8.23;6.50;;;;;;;;;;4997123;28;20512;-82
2021/09/06 14:24:37;;;;;;;9.43;6.80;;;;;;;;;;4998152;28;20495;-83
2021/09/06 14:27:04;;;;;;;9.18;6.30;;;;;;;;;;4997018;28;20046;-83
2021/09/06 14:29:31;;;;;;;10.25;6.93;;;;;;;;;;4997380;28;20297;-83
2021/09/06 14:31:58;;;;;;;9.07;6.80;;;;;;;;;;4996690;28;20050;-83